フェニックス の空港の天気 - METARとTAF

フェニックス・スカイハーバー国際空港 ( KPHX / PHX ) - アメリカ アリゾナ州フェニックス
飛行場実況気象(Metar)
観測時間10/22 04:51 MST (10/22 11:51 UTC)
風向・風速東 4m/s
視程10km以上
天気現象
少しの雲 雲底高度 2740m
少しの雲 雲底高度 3350m
気温20℃
湿度28%
気圧1006hPa
METARKPHX 221151Z 10007KT 10SM FEW090 FEW110 20/01 A2976 RMK AO2 SLP060 T02000011 10250 20200 51001
過去の天気等 Google飛行場航空写真 Wunderground天気予報

過去48時間のMETAR

飛行場予報(TAF)
発表時間: 10/22 04:33 MST (10/22 11:33 UTC)
予報対象時間: 22日5時 MST ~ 23日11時 MST
風向・風速東 3m/s
視程10km以上
なし
22日14時 MST から
風向・風速西南西 3m/s
視程10km以上
少しの雲 雲底高度 7620m
22日18時 MST から
風向・風速不定 2m/s
視程10km以上
少しの雲 雲底高度 7620m
23日0時 MST から
風向・風速東 3m/s
視程10km以上
なし
KPHX 221133Z 2212/2318 09006KT P6SM SKC
FM222100 25005KT P6SM FEW250
FM230100 VRB04KT P6SM FEW250
FM230700 10005KT P6SM SKC